Terminal Aerodrome Forecast
Issued by NWS

Home | Current Version | Previous Version | Text Only | Print | Product List | Glossary On
Versions: 1 2 3 4 5 6 7 8 9 10 11 12 13 14 15 16 17 18 19
000
FTUS46 KSTO 110543
TAFSCK
TAF
KSCK 110543Z 1106/1206 22005KT P6SM BKN200
     FM111200 VRB04KT 2SM BR FEW250
      TEMPO 1114/1118 1/2SM FG BKN001
     FM111800 30004KT P6SM FEW250=

USA.gov is the U.S. government's official web portal to all federal, state and local government web resources and services.